sensor_id;sensor_type;location;lat;lon;timestamp;temperature;humidity
29007;DHT22;16104;48.642;9.008;2024-02-26T00:00:34;9.20;51.00
29007;DHT22;16104;48.642;9.008;2024-02-26T00:05:30;9.20;51.00
29007;DHT22;16104;48.642;9.008;2024-02-26T00:10:26;9.20;51.10
29007;DHT22;16104;48.642;9.008;2024-02-26T00:15:22;9.20;51.10
29007;DHT22;16104;48.642;9.008;2024-02-26T00:20:17;9.20;51.10
29007;DHT22;16104;48.642;9.008;2024-02-26T00:25:13;9.30;51.10
29007;DHT22;16104;48.642;9.008;2024-02-26T00:30:09;9.30;51.00
29007;DHT22;16104;48.642;9.008;2024-02-26T00:35:05;9.30;51.00
29007;DHT22;16104;48.642;9.008;2024-02-26T00:40:00;9.30;50.80
29007;DHT22;16104;48.642;9.008;2024-02-26T00:44:56;9.30;50.90
29007;DHT22;16104;48.642;9.008;2024-02-26T00:49:53;9.40;51.00
29007;DHT22;16104;48.642;9.008;2024-02-26T00:54:48;9.40;51.10
29007;DHT22;16104;48.642;9.008;2024-02-26T00:59:44;9.40;51.20
29007;DHT22;16104;48.642;9.008;2024-02-26T05:00:30;10.10;52.60
29007;DHT22;16104;48.642;9.008;2024-02-26T05:05:25;10.10;52.80
29007;DHT22;16104;48.642;9.008;2024-02-26T05:10:21;10.10;52.90
29007;DHT22;16104;48.642;9.008;2024-02-26T05:15:16;10.10;53.00
29007;DHT22;16104;48.642;9.008;2024-02-26T05:20:13;10.10;53.00
29007;DHT22;16104;48.642;9.008;2024-02-26T05:25:09;10.10;53.20
29007;DHT22;16104;48.642;9.008;2024-02-26T05:30:05;10.10;53.40
29007;DHT22;16104;48.642;9.008;2024-02-26T05:35:01;10.00;53.60
29007;DHT22;16104;48.642;9.008;2024-02-26T05:39:59;10.00;53.90
29007;DHT22;16104;48.642;9.008;2024-02-26T05:44:54;10.00;54.10
29007;DHT22;16104;48.642;9.008;2024-02-26T05:49:50;10.00;54.50
29007;DHT22;16104;48.642;9.008;2024-02-26T05:54:45;10.00;54.90
29007;DHT22;16104;48.642;9.008;2024-02-26T05:59:41;9.90;55.00
29007;DHT22;16104;48.642;9.008;2024-02-26T06:04:36;9.90;55.10
29007;DHT22;16104;48.642;9.008;2024-02-26T06:09:32;9.80;55.30
29007;DHT22;16104;48.642;9.008;2024-02-26T06:14:27;9.80;55.70
29007;DHT22;16104;48.642;9.008;2024-02-26T06:19:23;9.70;55.90
29007;DHT22;16104;48.642;9.008;2024-02-26T06:24:18;9.70;56.00
29007;DHT22;16104;48.642;9.008;2024-02-26T06:29:16;9.70;56.10
29007;DHT22;16104;48.642;9.008;2024-02-26T06:34:11;9.60;56.10
29007;DHT22;16104;48.642;9.008;2024-02-26T06:39:07;9.60;56.00
29007;DHT22;16104;48.642;9.008;2024-02-26T06:44:03;9.60;56.20
29007;DHT22;16104;48.642;9.008;2024-02-26T06:48:59;9.50;56.30
29007;DHT22;16104;48.642;9.008;2024-02-26T06:53:54;9.50;56.70
29007;DHT22;16104;48.642;9.008;2024-02-26T06:58:50;9.50;56.90
29007;DHT22;16104;48.642;9.008;2024-02-26T07:03:45;9.40;57.10
29007;DHT22;16104;48.642;9.008;2024-02-26T07:08:41;9.40;57.20
29007;DHT22;16104;48.642;9.008;2024-02-26T07:13:36;9.40;57.50
29007;DHT22;16104;48.642;9.008;2024-02-26T07:18:32;9.40;57.90
29007;DHT22;16104;48.642;9.008;2024-02-26T07:23:27;9.40;58.10
29007;DHT22;16104;48.642;9.008;2024-02-26T07:28:24;9.40;58.20
29007;DHT22;16104;48.642;9.008;2024-02-26T07:33:19;9.40;58.50
29007;DHT22;16104;48.642;9.008;2024-02-26T07:38:15;9.40;58.60
29007;DHT22;16104;48.642;9.008;2024-02-26T07:43:10;9.40;58.60
29007;DHT22;16104;48.642;9.008;2024-02-26T07:48:06;9.50;58.90
29007;DHT22;16104;48.642;9.008;2024-02-26T07:53:02;9.60;59.10
29007;DHT22;16104;48.642;9.008;2024-02-26T07:57:57;9.60;59.10
29007;DHT22;16104;48.642;9.008;2024-02-26T08:02:53;9.60;58.80
29007;DHT22;16104;48.642;9.008;2024-02-26T08:07:48;9.70;59.00
29007;DHT22;16104;48.642;9.008;2024-02-26T08:12:44;9.70;59.00
29007;DHT22;16104;48.642;9.008;2024-02-26T08:17:40;9.80;59.90
29007;DHT22;16104;48.642;9.008;2024-02-26T08:22:36;9.80;59.40
29007;DHT22;16104;48.642;9.008;2024-02-26T08:27:32;9.90;59.50
29007;DHT22;16104;48.642;9.008;2024-02-26T08:32:28;10.00;59.40
29007;DHT22;16104;48.642;9.008;2024-02-26T08:37:23;10.10;59.30
29007;DHT22;16104;48.642;9.008;2024-02-26T08:42:19;10.20;59.30
29007;DHT22;16104;48.642;9.008;2024-02-26T08:47:14;10.20;59.00
29007;DHT22;16104;48.642;9.008;2024-02-26T08:52:10;10.30;59.00
29007;DHT22;16104;48.642;9.008;2024-02-26T08:57:05;10.30;59.00
29007;DHT22;16104;48.642;9.008;2024-02-26T09:02:01;10.40;58.80
29007;DHT22;16104;48.642;9.008;2024-02-26T09:06:56;10.50;58.60
29007;DHT22;16104;48.642;9.008;2024-02-26T09:11:52;10.60;58.50
29007;DHT22;16104;48.642;9.008;2024-02-26T09:16:47;10.70;58.30
29007;DHT22;16104;48.642;9.008;2024-02-26T09:21:47;10.70;58.00
29007;DHT22;16104;48.642;9.008;2024-02-26T09:26:43;10.80;58.00
29007;DHT22;16104;48.642;9.008;2024-02-26T09:31:38;10.90;57.90
29007;DHT22;16104;48.642;9.008;2024-02-26T09:36:36;10.90;57.90
29007;DHT22;16104;48.642;9.008;2024-02-26T09:41:31;11.00;57.70
29007;DHT22;16104;48.642;9.008;2024-02-26T09:46:27;11.20;57.70
29007;DHT22;16104;48.642;9.008;2024-02-26T09:51:23;11.40;57.60
29007;DHT22;16104;48.642;9.008;2024-02-26T09:56:22;11.50;57.20
29007;DHT22;16104;48.642;9.008;2024-02-26T10:01:19;11.70;56.90
29007;DHT22;16104;48.642;9.008;2024-02-26T10:06:15;11.90;56.90
29007;DHT22;16104;48.642;9.008;2024-02-26T10:11:11;12.10;56.70
29007;DHT22;16104;48.642;9.008;2024-02-26T10:16:07;12.30;56.30
29007;DHT22;16104;48.642;9.008;2024-02-26T10:21:03;12.50;56.00
29007;DHT22;16104;48.642;9.008;2024-02-26T10:25:59;12.80;55.30
29007;DHT22;16104;48.642;9.008;2024-02-26T10:30:55;13.00;55.20
29007;DHT22;16104;48.642;9.008;2024-02-26T10:35:50;13.20;55.00
29007;DHT22;16104;48.642;9.008;2024-02-26T10:40:48;13.30;54.50
29007;DHT22;16104;48.642;9.008;2024-02-26T10:45:44;13.40;53.80
29007;DHT22;16104;48.642;9.008;2024-02-26T10:50:40;13.50;53.70
29007;DHT22;16104;48.642;9.008;2024-02-26T10:55:37;13.60;53.70
29007;DHT22;16104;48.642;9.008;2024-02-26T11:00:33;13.80;53.80
29007;DHT22;16104;48.642;9.008;2024-02-26T11:05:29;13.90;53.30
29007;DHT22;16104;48.642;9.008;2024-02-26T11:10:27;14.10;52.70
29007;DHT22;16104;48.642;9.008;2024-02-26T11:15:24;14.20;52.20
29007;DHT22;16104;48.642;9.008;2024-02-26T11:20:20;14.40;52.00
29007;DHT22;16104;48.642;9.008;2024-02-26T11:25:17;14.40;51.70
29007;DHT22;16104;48.642;9.008;2024-02-26T11:30:13;14.50;51.50
29007;DHT22;16104;48.642;9.008;2024-02-26T11:35:11;14.60;51.50
29007;DHT22;16104;48.642;9.008;2024-02-26T11:40:11;14.70;50.80
29007;DHT22;16104;48.642;9.008;2024-02-26T11:50:45;14.90;49.20
29007;DHT22;16104;48.642;9.008;2024-02-26T11:55:41;14.90;49.60
29007;DHT22;16104;48.642;9.008;2024-02-26T12:00:36;15.00;49.70
29007;DHT22;16104;48.642;9.008;2024-02-26T12:05:35;15.10;49.70
29007;DHT22;16104;48.642;9.008;2024-02-26T12:10:37;15.10;49.70
29007;DHT22;16104;48.642;9.008;2024-02-26T12:15:36;15.10;49.60
29007;DHT22;16104;48.642;9.008;2024-02-26T12:20:32;15.20;49.70
29007;DHT22;16104;48.642;9.008;2024-02-26T12:25:29;15.30;49.50
29007;DHT22;16104;48.642;9.008;2024-02-26T12:30:26;15.40;49.50
29007;DHT22;16104;48.642;9.008;2024-02-26T12:35:21;15.50;49.30
29007;DHT22;16104;48.642;9.008;2024-02-26T12:40:17;15.70;49.80
29007;DHT22;16104;48.642;9.008;2024-02-26T12:45:13;16.00;48.90
29007;DHT22;16104;48.642;9.008;2024-02-26T12:50:10;16.20;48.80
29007;DHT22;16104;48.642;9.008;2024-02-26T12:55:06;16.40;48.20
29007;DHT22;16104;48.642;9.008;2024-02-26T13:00:08;16.50;48.40
29007;DHT22;16104;48.642;9.008;2024-02-26T13:05:07;16.60;48.00
29007;DHT22;16104;48.642;9.008;2024-02-26T13:10:03;16.80;47.70
29007;DHT22;16104;48.642;9.008;2024-02-26T13:15:03;16.90;47.60
29007;DHT22;16104;48.642;9.008;2024-02-26T13:19:58;17.10;47.40
29007;DHT22;16104;48.642;9.008;2024-02-26T13:24:55;17.30;48.10
29007;DHT22;16104;48.642;9.008;2024-02-26T13:30:10;17.50;47.40
29007;DHT22;16104;48.642;9.008;2024-02-26T13:35:12;17.70;45.00
29007;DHT22;16104;48.642;9.008;2024-02-26T13:40:10;17.80;45.30
29007;DHT22;16104;48.642;9.008;2024-02-26T13:45:06;17.80;45.60
29007;DHT22;16104;48.642;9.008;2024-02-26T13:50:02;17.90;45.40
29007;DHT22;16104;48.642;9.008;2024-02-26T13:54:58;17.90;45.10
29007;DHT22;16104;48.642;9.008;2024-02-26T13:59:55;18.00;45.10
29007;DHT22;16104;48.642;9.008;2024-02-26T14:04:50;18.10;45.00
29007;DHT22;16104;48.642;9.008;2024-02-26T14:09:46;18.20;44.80
29007;DHT22;16104;48.642;9.008;2024-02-26T14:14:42;18.30;44.80
29007;DHT22;16104;48.642;9.008;2024-02-26T14:19:37;18.40;44.40
29007;DHT22;16104;48.642;9.008;2024-02-26T14:24:35;18.50;44.30
29007;DHT22;16104;48.642;9.008;2024-02-26T14:29:32;18.60;43.90
29007;DHT22;16104;48.642;9.008;2024-02-26T14:34:27;18.70;43.60
29007;DHT22;16104;48.642;9.008;2024-02-26T14:39:23;18.70;43.40
29007;DHT22;16104;48.642;9.008;2024-02-26T14:44:18;18.70;43.50
29007;DHT22;16104;48.642;9.008;2024-02-26T14:49:14;18.60;43.30
29007;DHT22;16104;48.642;9.008;2024-02-26T14:54:11;18.50;43.10
29007;DHT22;16104;48.642;9.008;2024-02-26T14:59:07;18.40;43.60
29007;DHT22;16104;48.642;9.008;2024-02-26T15:04:02;18.30;42.70
29007;DHT22;16104;48.642;9.008;2024-02-26T15:08:59;18.20;42.90
29007;DHT22;16104;48.642;9.008;2024-02-26T15:13:54;18.10;42.70
29007;DHT22;16104;48.642;9.008;2024-02-26T15:18:50;17.90;43.00
29007;DHT22;16104;48.642;9.008;2024-02-26T15:23:45;17.80;42.90
29007;DHT22;16104;48.642;9.008;2024-02-26T15:28:41;17.60;43.00
29007;DHT22;16104;48.642;9.008;2024-02-26T15:33:36;17.60;43.20
29007;DHT22;16104;48.642;9.008;2024-02-26T15:38:32;17.40;43.40
29007;DHT22;16104;48.642;9.008;2024-02-26T15:43:28;17.30;43.60
29007;DHT22;16104;48.642;9.008;2024-02-26T15:48:23;17.10;43.60
29007;DHT22;16104;48.642;9.008;2024-02-26T15:53:19;17.10;43.70
29007;DHT22;16104;48.642;9.008;2024-02-26T15:58:14;17.00;43.80
29007;DHT22;16104;48.642;9.008;2024-02-26T16:03:10;16.90;43.90
29007;DHT22;16104;48.642;9.008;2024-02-26T16:08:14;16.80;43.90
29007;DHT22;16104;48.642;9.008;2024-02-26T16:13:15;16.70;44.10
29007;DHT22;16104;48.642;9.008;2024-02-26T16:18:10;16.60;44.40
29007;DHT22;16104;48.642;9.008;2024-02-26T16:23:06;16.40;44.30
29007;DHT22;16104;48.642;9.008;2024-02-26T16:28:03;16.30;44.30
29007;DHT22;16104;48.642;9.008;2024-02-26T16:32:59;16.20;44.70
29007;DHT22;16104;48.642;9.008;2024-02-26T16:37:54;16.10;44.90
29007;DHT22;16104;48.642;9.008;2024-02-26T16:42:49;16.00;44.80
29007;DHT22;16104;48.642;9.008;2024-02-26T16:47:45;15.90;45.10
29007;DHT22;16104;48.642;9.008;2024-02-26T16:52:41;15.80;45.30
29007;DHT22;16104;48.642;9.008;2024-02-26T16:57:36;15.70;45.40
29007;DHT22;16104;48.642;9.008;2024-02-26T17:02:32;15.60;45.50
29007;DHT22;16104;48.642;9.008;2024-02-26T17:07:27;15.50;45.70
29007;DHT22;16104;48.642;9.008;2024-02-26T17:12:23;15.40;46.00
29007;DHT22;16104;48.642;9.008;2024-02-26T17:17:18;15.30;46.10
29007;DHT22;16104;48.642;9.008;2024-02-26T17:22:14;15.10;46.40
29007;DHT22;16104;48.642;9.008;2024-02-26T17:27:10;15.00;46.60
29007;DHT22;16104;48.642;9.008;2024-02-26T17:32:06;14.90;46.70
29007;DHT22;16104;48.642;9.008;2024-02-26T17:37:01;14.80;46.90
29007;DHT22;16104;48.642;9.008;2024-02-26T17:41:57;14.70;47.10
29007;DHT22;16104;48.642;9.008;2024-02-26T17:46:52;14.60;47.40
29007;DHT22;16104;48.642;9.008;2024-02-26T17:51:48;14.50;47.60
29007;DHT22;16104;48.642;9.008;2024-02-26T17:56:43;14.40;47.80
29007;DHT22;16104;48.642;9.008;2024-02-26T18:01:39;14.40;48.00
29007;DHT22;16104;48.642;9.008;2024-02-26T18:06:35;14.30;48.30
29007;DHT22;16104;48.642;9.008;2024-02-26T18:11:31;14.20;48.40
29007;DHT22;16104;48.642;9.008;2024-02-26T18:16:27;14.10;48.40
29007;DHT22;16104;48.642;9.008;2024-02-26T18:21:23;14.10;48.70
29007;DHT22;16104;48.642;9.008;2024-02-26T18:26:21;14.00;48.80
29007;DHT22;16104;48.642;9.008;2024-02-26T18:31:19;14.00;48.90
29007;DHT22;16104;48.642;9.008;2024-02-26T18:36:15;13.90;49.00
29007;DHT22;16104;48.642;9.008;2024-02-26T18:41:22;13.80;49.20
29007;DHT22;16104;48.642;9.008;2024-02-26T18:46:19;13.70;49.10
29007;DHT22;16104;48.642;9.008;2024-02-26T18:51:14;13.70;49.10
29007;DHT22;16104;48.642;9.008;2024-02-26T18:56:11;13.60;49.10
29007;DHT22;16104;48.642;9.008;2024-02-26T19:01:07;13.50;49.20
29007;DHT22;16104;48.642;9.008;2024-02-26T19:06:02;13.50;49.20
29007;DHT22;16104;48.642;9.008;2024-02-26T19:11:00;13.50;49.30
29007;DHT22;16104;48.642;9.008;2024-02-26T19:15:55;13.40;49.40
29007;DHT22;16104;48.642;9.008;2024-02-26T19:20:51;13.40;49.30
29007;DHT22;16104;48.642;9.008;2024-02-26T19:25:46;13.30;49.30
29007;DHT22;16104;48.642;9.008;2024-02-26T19:30:42;13.30;49.30
29007;DHT22;16104;48.642;9.008;2024-02-26T19:35:38;13.20;49.30
29007;DHT22;16104;48.642;9.008;2024-02-26T19:40:34;13.20;49.30
29007;DHT22;16104;48.642;9.008;2024-02-26T19:45:29;13.10;49.40
29007;DHT22;16104;48.642;9.008;2024-02-26T19:50:25;13.10;49.60
29007;DHT22;16104;48.642;9.008;2024-02-26T19:55:20;13.00;49.60
29007;DHT22;16104;48.642;9.008;2024-02-26T20:00:17;13.00;49.60
29007;DHT22;16104;48.642;9.008;2024-02-26T20:05:13;13.00;49.60
29007;DHT22;16104;48.642;9.008;2024-02-26T20:10:09;12.90;49.60
29007;DHT22;16104;48.642;9.008;2024-02-26T20:15:05;12.90;49.70
29007;DHT22;16104;48.642;9.008;2024-02-26T20:20:00;12.80;49.70
29007;DHT22;16104;48.642;9.008;2024-02-26T20:24:57;12.70;49.80
29007;DHT22;16104;48.642;9.008;2024-02-26T20:29:53;12.70;49.80
29007;DHT22;16104;48.642;9.008;2024-02-26T20:34:51;12.70;50.00
29007;DHT22;16104;48.642;9.008;2024-02-26T20:39:47;12.60;50.10
29007;DHT22;16104;48.642;9.008;2024-02-26T20:44:42;12.60;50.20
29007;DHT22;16104;48.642;9.008;2024-02-26T20:49:38;12.50;50.30
29007;DHT22;16104;48.642;9.008;2024-02-26T20:54:33;12.50;50.40
29007;DHT22;16104;48.642;9.008;2024-02-26T20:59:30;12.40;50.30
29007;DHT22;16104;48.642;9.008;2024-02-26T21:04:27;12.40;50.40
29007;DHT22;16104;48.642;9.008;2024-02-26T21:09:22;12.40;50.50
29007;DHT22;16104;48.642;9.008;2024-02-26T21:14:18;12.40;50.50
29007;DHT22;16104;48.642;9.008;2024-02-26T21:19:13;12.30;50.60
29007;DHT22;16104;48.642;9.008;2024-02-26T21:24:09;12.30;50.60
29007;DHT22;16104;48.642;9.008;2024-02-26T21:29:04;12.30;50.80
29007;DHT22;16104;48.642;9.008;2024-02-26T21:34:00;12.20;50.90
29007;DHT22;16104;48.642;9.008;2024-02-26T21:38:56;12.20;51.00
29007;DHT22;16104;48.642;9.008;2024-02-26T21:43:51;12.20;51.20
29007;DHT22;16104;48.642;9.008;2024-02-26T21:48:48;12.10;51.50
29007;DHT22;16104;48.642;9.008;2024-02-26T21:53:44;12.10;51.70
29007;DHT22;16104;48.642;9.008;2024-02-26T21:58:39;12.10;51.90
29007;DHT22;16104;48.642;9.008;2024-02-26T22:03:35;12.00;52.10
29007;DHT22;16104;48.642;9.008;2024-02-26T22:08:30;12.00;52.20
29007;DHT22;16104;48.642;9.008;2024-02-26T22:13:26;12.00;52.40
29007;DHT22;16104;48.642;9.008;2024-02-26T22:18:22;11.90;52.60
29007;DHT22;16104;48.642;9.008;2024-02-26T22:23:17;11.90;52.80
29007;DHT22;16104;48.642;9.008;2024-02-26T22:28:12;11.80;53.00
29007;DHT22;16104;48.642;9.008;2024-02-26T22:33:08;11.80;53.10
29007;DHT22;16104;48.642;9.008;2024-02-26T22:38:04;11.80;53.20
29007;DHT22;16104;48.642;9.008;2024-02-26T22:43:00;11.80;53.30
29007;DHT22;16104;48.642;9.008;2024-02-26T22:47:56;11.80;53.50
29007;DHT22;16104;48.642;9.008;2024-02-26T22:52:51;11.80;53.50
29007;DHT22;16104;48.642;9.008;2024-02-26T22:57:47;11.80;53.50
29007;DHT22;16104;48.642;9.008;2024-02-26T23:02:42;11.70;53.40
29007;DHT22;16104;48.642;9.008;2024-02-26T23:07:38;11.80;53.60
29007;DHT22;16104;48.642;9.008;2024-02-26T23:12:34;11.80;53.60
29007;DHT22;16104;48.642;9.008;2024-02-26T23:17:29;11.70;53.50
29007;DHT22;16104;48.642;9.008;2024-02-26T23:22:25;11.80;53.60
29007;DHT22;16104;48.642;9.008;2024-02-26T23:27:20;11.70;53.60
29007;DHT22;16104;48.642;9.008;2024-02-26T23:32:16;11.70;54.40
29007;DHT22;16104;48.642;9.008;2024-02-26T23:37:11;11.70;53.70
29007;DHT22;16104;48.642;9.008;2024-02-26T23:42:07;11.70;53.70
29007;DHT22;16104;48.642;9.008;2024-02-26T23:47:02;11.70;53.70
29007;DHT22;16104;48.642;9.008;2024-02-26T23:51:58;11.70;53.70
29007;DHT22;16104;48.642;9.008;2024-02-26T23:56:53;11.70;53.90
